Garfield County Regional Airport
KRIL : now visible

Airfield :











YOU CAN JOIN US ON...

 
LOGIN :

Register | Disclaimer

   EN    FR    IT 

 









Legend :    VFR   Marginal VFR   IFR   Intensive IFR   Very Intensive IFR
Visi :
Ceiling :
>= 8 km
>= 3000ft
5 to 8 km
1000 to 3000 ft
1500m to 5 km
500 to 1000 ft
800 to 1500m
200 to 500 ft
< 800m
< 200 ft
Symbols :   Thunderstorms  Fog  Heavy snow  Heavy precipitations  Wind > 20 kt






- Airport Elevation : 5548 ft


KRIL - Garfield County Regional

CURRENT METAR :
  • 021253Z AUTO 24021G29KT 10SM OVC050 08/M05 A2975 RMK AO2 PK WND 23040/1206 SLP054 T00781050

EXPIRED METARs :
  • 021153Z AUTO 22022G40KT 10SM OVC060 08/M06 A2973 RMK AO2 PK WND 21040/1149 SLP046 T00831056 10111 20078 53001
  • 021053Z AUTO 23012G24KT 10SM OVC065 08/M04 A2972 RMK AO2 PK WND 22031/1004 SLP036 T00831044

TAF KRIL
Valid from the 02 at 12:00 until the 03 at 12:00 UTC


021152Z 0212/0312 22015G25KT 6SM -SHRASN BR BKN060
FM021500 26017G32KT 5SM -SHRASN BR OVC045
FM021700 28018G31KT 3SM -SHSN BR SCT008 BKN035
FM021800 29016G28KT P6SM VCSH OVC035
FM030200 30005KT P6SM FEW250
KZDV FIR / North America



MET'MAP, your aeronautical weather chart ! - Copyright ORBIFLY December 2007 - Disclaimer

ORBIFLY MET'MAP TEAM :

Programming & Development : Alexandra Zaïnal
Original concept : Baudouin d'Aumeries
Technical & hardware support : Manuel Goepfert
Assistance : Marc-Olivier Méhu




SOURCES & CREDITS :

   NOAA       Earth
Advisory